Time;durP1;ratioP1;P1;durP2;ratioP2;P2;SDS_P1;SDS_P2;PMS_P1;PMS_P2;Temp;Humidity;BMP_temperature;BMP_pressure;BME280_temperature;BME280_humidity;BME280_pressure;Samples;Min_cycle;Max_cycle;Signal;HPM_P1;HPM_P2
2022/10/13 00:01:21;;;;;;;;;;;;;;;;;;5067283;28;20486;-65
2022/10/13 00:03:47;;;;;;;17.73;6.72;;;;;;;;;;5061015;28;19923;-65
2022/10/13 00:06:15;;;;;;;11.85;5.68;;;;;;;;;;5065554;28;20039;-63
2022/10/13 00:08:41;;;;;;;16.73;6.70;;;;;;;;;;5059321;28;20039;-64
2022/10/13 00:11:07;;;;;;;;;;;;;;;;;;5066216;28;20035;-65
2022/10/13 00:13:33;;;;;;;12.63;6.03;;;;;;;;;;5059768;28;19920;-64
2022/10/13 00:16:01;;;;;;;12.15;5.63;;;;;;;;;;5062812;28;20913;-65
2022/10/13 00:18:27;;;;;;;13.30;6.53;;;;;;;;;;5058995;28;20020;-63
2022/10/13 00:20:53;;;;;;;;;;;;;;;;;;5068464;28;20917;-64
2022/10/13 00:23:19;;;;;;;16.20;7.40;;;;;;;;;;5069795;28;19916;-64
2022/10/13 00:25:46;;;;;;;16.30;6.57;;;;;;;;;;5060988;28;23799;-63
2022/10/13 00:28:13;;;;;;;15.90;7.32;;;;;;;;;;5070710;28;20036;-64
2022/10/13 00:30:40;;;;;;;15.93;7.00;;;;;;;;;;5059780;28;20063;-64
2022/10/13 00:33:06;;;;;;;13.77;6.35;;;;;;;;;;5068349;28;20160;-64
2022/10/13 00:35:32;;;;;;;15.30;6.03;;;;;;;;;;5067161;28;20031;-64
2022/10/13 00:37:59;;;;;;;15.32;7.15;;;;;;;;;;5066883;28;20494;-65
2022/10/13 00:40:25;;;;;;;17.23;7.45;;;;;;;;;;5068180;28;20089;-65
2022/10/13 00:42:51;;;;;;;;;;;;;;;;;;5063055;28;20023;-65
2022/10/13 00:45:17;;;;;;;11.63;5.97;;;;;;;;;;5066211;28;19918;-64
2022/10/13 00:47:44;;;;;;;14.07;6.53;;;;;;;;;;5059561;28;20558;-64
2022/10/13 00:50:13;;;;;;;14.25;6.47;;;;;;;;;;5066192;28;20055;-65
2022/10/13 00:52:41;;;;;;;13.27;6.25;;;;;;;;;;5064958;28;20081;-65
2022/10/13 00:55:08;;;;;;;14.45;5.93;;;;;;;;;;5074042;28;20035;-63
2022/10/13 00:57:34;;;;;;;14.63;6.47;;;;;;;;;;5076496;28;20755;-64
2022/10/13 01:00:02;;;;;;;18.48;7.65;;;;;;;;;;5069476;28;20031;-64
2022/10/13 01:02:31;;;;;;;12.88;6.40;;;;;;;;;;5066904;28;20119;-64
2022/10/13 01:04:58;;;;;;;13.50;6.35;;;;;;;;;;5064266;28;20035;-64
2022/10/13 01:07:24;;;;;;;14.20;6.82;;;;;;;;;;5070759;28;20144;-64
2022/10/13 01:09:50;;;;;;;13.82;6.53;;;;;;;;;;5059254;28;20448;-63
2022/10/13 01:12:16;;;;;;;;;;;;;;;;;;5067403;28;20181;-63
2022/10/13 01:14:52;;;;;;;11.50;5.75;;;;;;;;;;5060670;28;20384;-65
2022/10/13 01:17:18;;;;;;;12.20;6.20;;;;;;;;;;5067941;28;20108;-65
2022/10/13 01:19:44;;;;;;;16.65;6.75;;;;;;;;;;5073817;28;20039;-63
2022/10/13 01:22:20;;;;;;;15.27;6.32;;;;;;;;;;5062661;28;20438;-66
2022/10/13 01:24:52;;;;;;;16.23;6.75;;;;;;;;;;5058120;28;20048;-64
2022/10/13 01:27:26;;;;;;;13.45;6.13;;;;;;;;;;5066768;28;20106;-63
2022/10/13 01:30:00;;;;;;;16.33;6.07;;;;;;;;;;5076977;28;20093;-65
2022/10/13 01:32:32;;;;;;;20.73;7.10;;;;;;;;;;5067003;28;20052;-65
2022/10/13 01:35:03;;;;;;;12.35;5.68;;;;;;;;;;5068131;28;20072;-64
2022/10/13 01:37:36;;;;;;;14.23;6.22;;;;;;;;;;5067560;28;20040;-64
2022/10/13 01:40:32;;;;;;;16.00;6.60;;;;;;;;;;5069447;28;20069;-64
2022/10/13 01:43:02;;;;;;;13.45;6.30;;;;;;;;;;5000575;28;20156;-64
2022/10/13 01:45:31;;;;;;;13.05;5.75;;;;;;;;;;4998613;28;20572;-64
2022/10/13 01:47:59;;;;;;;12.68;6.63;;;;;;;;;;4985487;28;20521;-64
2022/10/13 01:50:25;;;;;;;16.33;6.65;;;;;;;;;;4985361;28;20045;-64
2022/10/13 01:52:51;;;;;;;14.75;7.25;;;;;;;;;;5001913;28;20462;-65
2022/10/13 01:55:17;;;;;;;;;;;;;;;;;;5005555;28;20037;-65
2022/10/13 01:57:44;;;;;;;15.60;6.72;;;;;;;;;;4998749;28;19979;-65
2022/10/13 02:00:13;;;;;;;16.60;6.82;;;;;;;;;;4986800;28;20407;-65
2022/10/13 02:02:50;;;;;;;14.13;6.72;;;;;;;;;;4984558;28;20386;-65
2022/10/13 02:05:17;;;;;;;12.38;6.20;;;;;;;;;;5002766;28;20033;-65
2022/10/13 02:07:43;;;;;;;14.00;6.63;;;;;;;;;;4980971;28;20306;-65
2022/10/13 02:10:22;;;;;;;15.68;7.38;;;;;;;;;;5002475;28;21170;-63
2022/10/13 02:12:48;;;;;;;14.77;7.82;;;;;;;;;;4996408;28;20696;-64
2022/10/13 02:15:17;;;;;;;19.25;7.38;;;;;;;;;;5000353;28;20092;-65
2022/10/13 02:17:43;;;;;;;15.05;7.00;;;;;;;;;;4999485;28;20044;-63
2022/10/13 02:20:09;;;;;;;14.07;6.80;;;;;;;;;;5057435;28;20052;-63
2022/10/13 02:22:40;;;;;;;16.40;6.20;;;;;;;;;;5066345;28;20024;-65
2022/10/13 02:25:07;;;;;;;12.98;6.15;;;;;;;;;;5069168;28;20043;-63
2022/10/13 02:27:33;;;;;;;13.25;6.00;;;;;;;;;;5073569;28;20101;-64
2022/10/13 02:29:59;;;;;;;12.25;6.13;;;;;;;;;;5077455;28;20039;-63
2022/10/13 02:32:25;;;;;;;12.48;5.80;;;;;;;;;;5072307;28;20563;-65
2022/10/13 02:34:51;;;;;;;;;;;;;;;;;;5071424;28;20040;-65
2022/10/13 02:37:18;;;;;;;15.85;6.20;;;;;;;;;;5073719;28;20603;-65
2022/10/13 02:39:44;;;;;;;12.75;6.68;;;;;;;;;;5067687;28;20691;-65
2022/10/13 02:42:10;;;;;;;14.95;7.10;;;;;;;;;;5070729;28;20036;-65
2022/10/13 02:44:39;;;;;;;;;;;;;;;;;;5069460;28;20467;-65
2022/10/13 02:47:05;;;;;;;16.65;7.05;;;;;;;;;;5072021;28;20297;-65
2022/10/13 02:49:31;;;;;;;13.50;6.85;;;;;;;;;;5061801;28;20166;-64
2022/10/13 02:51:58;;;;;;;15.15;7.43;;;;;;;;;;5074516;28;20503;-64
2022/10/13 02:54:24;;;;;;;16.20;7.60;;;;;;;;;;5072052;28;20074;-65
2022/10/13 02:56:50;;;;;;;13.55;6.55;;;;;;;;;;5058438;28;20063;-65
2022/10/13 02:59:16;;;;;;;;;;;;;;;;;;5073754;28;20484;-65
2022/10/13 03:01:43;;;;;;;14.90;7.55;;;;;;;;;;5062032;28;19951;-65
2022/10/13 03:04:10;;;;;;;14.77;7.25;;;;;;;;;;5070083;28;20474;-65
2022/10/13 03:06:36;;;;;;;14.95;7.43;;;;;;;;;;5063740;28;20089;-65
2022/10/13 03:09:03;;;;;;;12.73;7.20;;;;;;;;;;5067164;28;20119;-65
2022/10/13 03:11:29;;;;;;;13.27;6.88;;;;;;;;;;5067066;28;20145;-65
2022/10/13 03:13:55;;;;;;;13.90;6.40;;;;;;;;;;5073006;28;20114;-65
2022/10/13 03:16:22;;;;;;;14.32;7.03;;;;;;;;;;5068741;28;20093;-65
2022/10/13 03:18:48;;;;;;;14.70;7.53;;;;;;;;;;5069751;28;20543;-65
2022/10/13 03:21:14;;;;;;;16.85;7.60;;;;;;;;;;5071799;28;20040;-65
2022/10/13 03:23:40;;;;;;;18.05;7.43;;;;;;;;;;5066447;28;20112;-65
2022/10/13 03:26:06;;;;;;;14.60;7.50;;;;;;;;;;5065490;28;20786;-65
2022/10/13 03:28:33;;;;;;;15.95;6.85;;;;;;;;;;5060546;28;20344;-65
2022/10/13 03:31:00;;;;;;;17.73;6.28;;;;;;;;;;5068021;28;20568;-65
2022/10/13 03:33:26;;;;;;;13.32;5.82;;;;;;;;;;5067119;28;20060;-64
2022/10/13 03:35:52;;;;;;;;;;;;;;;;;;5075886;28;20366;-64
2022/10/13 03:38:18;;;;;;;13.73;6.20;;;;;;;;;;5065919;28;19985;-64
2022/10/13 03:40:44;;;;;;;12.73;5.90;;;;;;;;;;5067034;28;20043;-64
2022/10/13 03:43:10;;;;;;;;;;;;;;;;;;5066120;28;20035;-65
2022/10/13 03:45:36;;;;;;;13.02;5.75;;;;;;;;;;5063388;28;19916;-65
2022/10/13 03:48:03;;;;;;;13.30;6.10;;;;;;;;;;5071482;28;20051;-64
2022/10/13 03:50:29;;;;;;;13.30;5.50;;;;;;;;;;5070590;28;20044;-65
2022/10/13 03:52:55;;;;;;;15.23;5.55;;;;;;;;;;5065253;28;20032;-65
2022/10/13 03:55:21;;;;;;;13.13;5.60;;;;;;;;;;5072701;28;20023;-64
2022/10/13 03:57:47;;;;;;;;;;;;;;;;;;5065264;28;20112;-65
2022/10/13 04:00:14;;;;;;;14.48;6.78;;;;;;;;;;5066588;28;20030;-65
2022/10/13 04:02:40;;;;;;;17.67;6.15;;;;;;;;;;5060848;28;20071;-65
2022/10/13 04:05:06;;;;;;;15.35;6.45;;;;;;;;;;5069295;28;20028;-65
2022/10/13 04:07:32;;;;;;;;;;;;;;;;;;5060723;28;20477;-65
2022/10/13 04:09:58;;;;;;;14.13;6.32;;;;;;;;;;5069099;28;19915;-65
2022/10/13 04:12:24;;;;;;;18.58;6.63;;;;;;;;;;5068449;28;20042;-64
2022/10/13 04:14:50;;;;;;;13.68;6.43;;;;;;;;;;5059633;28;20028;-65
2022/10/13 04:17:16;;;;;;;13.60;6.43;;;;;;;;;;5069785;28;20219;-63
2022/10/13 04:19:42;;;;;;;14.60;6.80;;;;;;;;;;5072261;28;20032;-65
2022/10/13 04:22:08;;;;;;;15.68;7.28;;;;;;;;;;5076533;28;20077;-65
2022/10/13 04:24:35;;;;;;;14.75;6.97;;;;;;;;;;5063479;28;20130;-65
2022/10/13 04:27:01;;;;;;;;;;;;;;;;;;5069100;28;20110;-65
2022/10/13 04:29:27;;;;;;;15.07;8.10;;;;;;;;;;5069647;28;20534;-65
2022/10/13 04:31:53;;;;;;;14.93;7.38;;;;;;;;;;5063364;28;20126;-65
2022/10/13 04:34:19;;;;;;;18.35;8.27;;;;;;;;;;5071119;28;20576;-66
2022/10/13 04:36:45;;;;;;;15.27;8.20;;;;;;;;;;5065052;28;20119;-65
2022/10/13 04:39:11;;;;;;;18.35;8.13;;;;;;;;;;5064262;28;20067;-66
2022/10/13 04:41:37;;;;;;;15.98;7.93;;;;;;;;;;5068332;28;20027;-66
2022/10/13 04:44:03;;;;;;;15.57;7.25;;;;;;;;;;5073983;28;20140;-65
2022/10/13 04:46:30;;;;;;;14.82;7.85;;;;;;;;;;5066265;28;20046;-65
2022/10/13 04:48:56;;;;;;;15.65;7.28;;;;;;;;;;5060568;28;20032;-65
2022/10/13 04:51:23;;;;;;;13.63;6.70;;;;;;;;;;5061342;28;20032;-66
2022/10/13 04:53:53;;;;;;;14.05;6.60;;;;;;;;;;5067836;28;20093;-65
2022/10/13 04:56:19;;;;;;;15.43;7.18;;;;;;;;;;5069902;28;20055;-67
2022/10/13 04:58:45;;;;;;;15.35;7.10;;;;;;;;;;5063041;28;20039;-66
2022/10/13 05:01:13;;;;;;;14.05;6.18;;;;;;;;;;5068153;28;20028;-65
2022/10/13 05:03:39;;;;;;;14.25;6.55;;;;;;;;;;5062283;28;20040;-67
2022/10/13 05:06:06;;;;;;;14.07;7.28;;;;;;;;;;5069819;28;20081;-67
2022/10/13 05:08:32;;;;;;;;;;;;;;;;;;5069054;28;20117;-66
2022/10/13 05:11:02;;;;;;;17.13;6.75;;;;;;;;;;5068434;28;19912;-66
2022/10/13 05:13:29;;;;;;;15.32;6.47;;;;;;;;;;5058127;28;20317;-66
2022/10/13 05:15:55;;;;;;;13.77;6.68;;;;;;;;;;5065654;28;20158;-66
2022/10/13 05:18:22;;;;;;;14.63;6.32;;;;;;;;;;5066622;28;20160;-67
2022/10/13 05:20:48;;;;;;;13.25;6.45;;;;;;;;;;5070422;28;20024;-65
2022/10/13 05:23:14;;;;;;;;;;;;;;;;;;5066413;28;20036;-67
2022/10/13 05:25:40;;;;;;;17.65;6.85;;;;;;;;;;5062417;28;19922;-67
2022/10/13 05:28:07;;;;;;;17.83;7.15;;;;;;;;;;5074637;28;20035;-65
2022/10/13 05:30:33;;;;;;;18.33;7.40;;;;;;;;;;5066258;28;20859;-65
2022/10/13 05:32:59;;;;;;;19.08;7.70;;;;;;;;;;5067821;28;20049;-66
2022/10/13 05:35:25;;;;;;;;;;;;;;;;;;5073525;28;20034;-65
2022/10/13 05:37:51;;;;;;;15.77;6.90;;;;;;;;;;5067485;28;19989;-67
2022/10/13 05:40:19;;;;;;;17.80;6.55;;;;;;;;;;5063814;28;20024;-66
2022/10/13 05:42:45;;;;;;;14.43;6.53;;;;;;;;;;5061093;28;20537;-67
2022/10/13 05:45:12;;;;;;;13.68;6.80;;;;;;;;;;5065736;28;20039;-66
2022/10/13 05:47:38;;;;;;;14.38;6.70;;;;;;;;;;5066028;28;20031;-66
2022/10/13 05:50:04;;;;;;;15.30;6.55;;;;;;;;;;5072443;28;20028;-66
2022/10/13 05:52:32;;;;;;;14.98;6.97;;;;;;;;;;5060549;28;20085;-67
2022/10/13 05:55:00;;;;;;;15.02;6.82;;;;;;;;;;5071096;28;20444;-67
2022/10/13 05:57:28;;;;;;;16.38;7.05;;;;;;;;;;5069547;28;20028;-66
2022/10/13 05:59:59;;;;;;;13.90;6.32;;;;;;;;;;5064380;28;20127;-66
2022/10/13 06:02:27;;;;;;;16.35;6.63;;;;;;;;;;5069148;28;20283;-67
2022/10/13 06:04:55;;;;;;;15.23;6.63;;;;;;;;;;5070956;28;20021;-66
2022/10/13 06:07:21;;;;;;;14.32;6.80;;;;;;;;;;5070028;28;20032;-65
2022/10/13 06:09:49;;;;;;;14.50;7.07;;;;;;;;;;5064638;28;20020;-65
2022/10/13 06:12:15;;;;;;;17.08;7.40;;;;;;;;;;5070419;28;20037;-67
2022/10/13 06:14:41;;;;;;;16.27;6.95;;;;;;;;;;5064904;28;20051;-66
2022/10/13 06:17:08;;;;;;;13.95;7.00;;;;;;;;;;5078070;28;20110;-66
2022/10/13 06:19:34;;;;;;;12.55;6.03;;;;;;;;;;5065805;28;20032;-66
2022/10/13 06:22:00;;;;;;;15.15;6.72;;;;;;;;;;5075631;28;20218;-65
2022/10/13 06:24:26;;;;;;;14.77;7.55;;;;;;;;;;5064702;28;20055;-66
2022/10/13 06:26:52;;;;;;;14.52;7.13;;;;;;;;;;5068639;28;20040;-65
2022/10/13 06:29:18;;;;;;;15.57;8.27;;;;;;;;;;5067209;28;20746;-65
2022/10/13 06:31:44;;;;;;;15.00;7.03;;;;;;;;;;5068076;28;20039;-65
2022/10/13 06:34:11;;;;;;;14.60;6.70;;;;;;;;;;5069040;28;20052;-66
2022/10/13 06:36:37;;;;;;;18.48;6.78;;;;;;;;;;5059903;27;20116;-67
2022/10/13 06:39:03;;;;;;;;;;;;;;;;;;5068854;28;20023;-66
2022/10/13 06:41:29;;;;;;;12.57;6.28;;;;;;;;;;5066199;28;19916;-66
2022/10/13 06:43:55;;;;;;;15.35;6.10;;;;;;;;;;5066534;28;20036;-66
2022/10/13 06:46:21;;;;;;;16.58;5.60;;;;;;;;;;5070135;28;20063;-65
2022/10/13 06:48:51;;;;;;;13.30;5.80;;;;;;;;;;5066327;27;20676;-65
2022/10/13 06:51:17;;;;;;;15.82;5.75;;;;;;;;;;5068959;28;20028;-65
2022/10/13 06:53:43;;;;;;;;;;;;;;;;;;5063664;28;20091;-65
2022/10/13 06:56:09;;;;;;;11.45;4.95;;;;;;;;;;5069500;28;20475;-67
2022/10/13 06:58:36;;;;;;;13.32;4.97;;;;;;;;;;5068354;28;20099;-67
2022/10/13 07:01:03;;;;;;;11.88;5.13;;;;;;;;;;5069109;28;20365;-66
2022/10/13 07:03:29;;;;;;;11.40;5.10;;;;;;;;;;5062398;28;20393;-67
2022/10/13 07:05:55;;;;;;;;;;;;;;;;;;5069891;28;20020;-67
2022/10/13 07:08:21;;;;;;;13.30;5.07;;;;;;;;;;5067460;27;19919;-67
2022/10/13 07:10:47;;;;;;;12.65;4.53;;;;;;;;;;5066121;28;21337;-65
2022/10/13 07:13:13;;;;;;;10.65;4.97;;;;;;;;;;5077548;28;20034;-66
2022/10/13 07:15:40;;;;;;;16.13;5.90;;;;;;;;;;5061210;28;20035;-66
2022/10/13 07:18:06;;;;;;;13.27;5.43;;;;;;;;;;5074580;28;20355;-66
2022/10/13 07:20:32;;;;;;;11.07;5.18;;;;;;;;;;5060129;28;20382;-66
2022/10/13 07:22:58;;;;;;;13.57;4.88;;;;;;;;;;5071174;28;20481;-66
2022/10/13 07:25:24;;;;;;;;;;;;;;;;;;5065122;28;20086;-67
2022/10/13 07:27:50;;;;;;;12.10;4.97;;;;;;;;;;5072550;28;19986;-67
2022/10/13 07:30:17;;;;;;;;;;;;;;;;;;5072562;28;20043;-66
2022/10/13 07:32:43;;;;;;;10.67;5.10;;;;;;;;;;5064242;28;19962;-66
2022/10/13 07:35:10;;;;;;;12.80;5.40;;;;;;;;;;5071382;28;20337;-66
2022/10/13 07:37:36;;;;;;;11.38;4.60;;;;;;;;;;5064378;28;20028;-66
2022/10/13 07:40:02;;;;;;;;;;;;;;;;;;5068534;28;20032;-67
2022/10/13 07:42:29;;;;;;;12.55;4.72;;;;;;;;;;5063602;28;20471;-66
2022/10/13 07:44:55;;;;;;;10.70;5.15;;;;;;;;;;5076819;28;20418;-66
2022/10/13 07:47:21;;;;;;;;;;;;;;;;;;5064953;28;20093;-66
2022/10/13 07:49:47;;;;;;;13.90;5.57;;;;;;;;;;5062653;28;19916;-66
2022/10/13 07:52:13;;;;;;;;;;;;;;;;;;5068800;28;20036;-67
2022/10/13 07:54:39;;;;;;;13.30;5.28;;;;;;;;;;5063088;28;19919;-66
2022/10/13 07:57:05;;;;;;;;;;;;;;;;;;5063839;28;20128;-66
2022/10/13 07:59:34;;;;;;;14.00;5.35;;;;;;;;;;5067510;28;20411;-66
2022/10/13 08:02:00;;;;;;;14.40;5.78;;;;;;;;;;5068100;28;20063;-66
2022/10/13 08:04:33;;;;;;;17.30;6.78;;;;;;;;;;5061963;28;20485;-66
2022/10/13 08:07:00;;;;;;;13.93;6.07;;;;;;;;;;5068129;28;20215;-66
2022/10/13 08:09:26;;;;;;;13.48;6.20;;;;;;;;;;5062580;28;20561;-66
2022/10/13 08:11:53;;;;;;;13.52;6.20;;;;;;;;;;5066456;28;20039;-67
2022/10/13 08:14:20;;;;;;;14.80;6.45;;;;;;;;;;5066170;28;20291;-67
2022/10/13 08:16:46;;;;;;;15.48;5.93;;;;;;;;;;5063193;28;20032;-67
2022/10/13 08:19:13;;;;;;;13.23;5.60;;;;;;;;;;5064927;28;20036;-67
2022/10/13 08:21:39;;;;;;;15.98;6.85;;;;;;;;;;5069581;28;20539;-67
2022/10/13 08:24:06;;;;;;;15.45;6.63;;;;;;;;;;5073749;28;20669;-66
2022/10/13 08:26:32;;;;;;;15.43;6.65;;;;;;;;;;5064219;28;20436;-67
2022/10/13 08:28:58;;;;;;;15.95;5.65;;;;;;;;;;5067978;28;20025;-66
2022/10/13 08:31:24;;;;;;;13.57;5.68;;;;;;;;;;5073127;28;20028;-65
2022/10/13 08:33:51;;;;;;;13.82;5.80;;;;;;;;;;5062306;28;20360;-67
2022/10/13 08:36:17;;;;;;;13.20;5.72;;;;;;;;;;5069421;28;20109;-66
2022/10/13 08:38:44;;;;;;;15.27;6.10;;;;;;;;;;5061922;28;20040;-66
2022/10/13 08:41:39;;;;;;;14.65;6.20;;;;;;;;;;5070224;28;20430;-67
2022/10/13 08:44:07;;;;;;;13.27;5.32;;;;;;;;;;5022352;28;20040;-65
2022/10/13 08:46:37;;;;;;;14.90;5.47;;;;;;;;;;5016982;28;20059;-66
2022/10/13 08:49:05;;;;;;;13.38;5.40;;;;;;;;;;5020034;28;20083;-67
2022/10/13 08:51:31;;;;;;;10.55;4.90;;;;;;;;;;5021250;28;20136;-69
2022/10/13 08:53:58;;;;;;;16.98;5.43;;;;;;;;;;5022931;28;20558;-67
2022/10/13 08:56:26;;;;;;;12.75;5.22;;;;;;;;;;5025412;28;20033;-66
2022/10/13 08:58:56;;;;;;;14.00;5.03;;;;;;;;;;5024685;28;20080;-65
2022/10/13 09:01:22;;;;;;;11.63;5.28;;;;;;;;;;5021749;28;20040;-66
2022/10/13 09:03:48;;;;;;;10.65;4.70;;;;;;;;;;5018504;28;20103;-66
2022/10/13 09:06:17;;;;;;;13.50;5.35;;;;;;;;;;5025528;28;20787;-67
2022/10/13 09:08:48;;;;;;;11.73;4.90;;;;;;;;;;5022343;28;20053;-67
2022/10/13 09:11:14;;;;;;;14.82;4.60;;;;;;;;;;5006242;28;20484;-66
2022/10/13 09:13:40;;;;;;;12.95;4.20;;;;;;;;;;5018500;28;20057;-67
2022/10/13 09:16:07;;;;;;;14.00;4.70;;;;;;;;;;5022197;28;20037;-66
2022/10/13 09:18:33;;;;;;;10.00;4.13;;;;;;;;;;5018413;28;20072;-67
2022/10/13 09:21:18;;;;;;;11.75;4.60;;;;;;;;;;5050075;28;20135;-66
2022/10/13 09:23:44;;;;;;;10.27;4.38;;;;;;;;;;5066823;28;21107;-67
2022/10/13 09:26:17;;;;;;;8.95;3.78;;;;;;;;;;5061444;28;20024;-65
2022/10/13 09:28:43;;;;;;;9.77;3.95;;;;;;;;;;5058976;28;20028;-66
2022/10/13 09:31:23;;;;;;;11.77;4.53;;;;;;;;;;5065740;28;20048;-66
2022/10/13 09:33:59;;;;;;;12.02;4.55;;;;;;;;;;5056028;28;20145;-66
2022/10/13 09:36:25;;;;;;;10.75;4.10;;;;;;;;;;5063965;28;20287;-66
2022/10/13 09:39:06;;;;;;;13.10;4.82;;;;;;;;;;5066872;28;20500;-66
2022/10/13 09:41:32;;;;;;;9.77;3.90;;;;;;;;;;5061864;28;20505;-66
2022/10/13 09:44:00;;;;;;;14.38;5.22;;;;;;;;;;5061721;28;20020;-66
2022/10/13 09:46:29;;;;;;;14.63;4.45;;;;;;;;;;5066025;28;20031;-67
2022/10/13 09:48:57;;;;;;;12.10;4.38;;;;;;;;;;5065245;28;20039;-66
2022/10/13 09:51:34;;;;;;;11.27;3.55;;;;;;;;;;5062669;28;20709;-66
2022/10/13 09:54:00;;;;;;;8.57;3.50;;;;;;;;;;5069537;28;20024;-66
2022/10/13 09:56:39;;;;;;;12.50;4.00;;;;;;;;;;5064195;28;20561;-65
2022/10/13 09:59:31;;;;;;;11.23;4.05;;;;;;;;;;5068796;28;20012;-66
2022/10/13 10:01:58;;;;;;;11.32;4.15;;;;;;;;;;5071860;28;20046;-65
2022/10/13 10:04:28;;;;;;;10.27;3.53;;;;;;;;;;5071286;28;20467;-65
2022/10/13 10:06:54;;;;;;;13.40;4.47;;;;;;;;;;5065488;28;20486;-67
2022/10/13 10:09:35;;;;;;;10.63;4.28;;;;;;;;;;5066366;28;20090;-67
2022/10/13 10:12:02;;;;;;;11.02;3.70;;;;;;;;;;5066773;28;20024;-67
2022/10/13 10:14:30;;;;;;;10.48;4.20;;;;;;;;;;5064613;28;20352;-67
2022/10/13 10:17:07;;;;;;;13.48;4.40;;;;;;;;;;5070520;28;20031;-66
2022/10/13 10:19:51;;;;;;;9.40;3.75;;;;;;;;;;5064755;28;20846;-66
2022/10/13 10:22:30;;;;;;;9.43;3.58;;;;;;;;;;5067877;28;20032;-66
2022/10/13 10:25:16;;;;;;;10.50;3.92;;;;;;;;;;5066950;28;20116;-67
2022/10/13 10:27:45;;;;;;;10.38;3.42;;;;;;;;;;5065315;28;20074;-66
2022/10/13 10:30:20;;;;;;;11.75;3.85;;;;;;;;;;5068158;28;20469;-68
2022/10/13 10:32:46;;;;;;;;;;;;;;;;;;5058706;28;21476;-67
2022/10/13 10:35:15;;;;;;;10.65;3.65;;;;;;;;;;5070599;28;19912;-67
2022/10/13 10:38:04;;;;;;;9.30;3.38;;;;;;;;;;5060198;28;20108;-67
2022/10/13 10:40:37;;;;;;;10.88;3.08;;;;;;;;;;5054094;28;20044;-67
2022/10/13 10:43:21;;;;;;;8.27;2.85;;;;;;;;;;5067895;28;20509;-67
2022/10/13 10:45:48;;;;;;;9.10;2.80;;;;;;;;;;5063160;28;20671;-67
2022/10/13 10:48:25;;;;;;;7.32;2.83;;;;;;;;;;5070780;28;20642;-67
2022/10/13 10:50:52;;;;;;;9.05;2.80;;;;;;;;;;5067769;28;20454;-67
2022/10/13 10:53:27;;;;;;;9.13;3.38;;;;;;;;;;5070308;28;20036;-66
2022/10/13 10:55:57;;;;;;;8.68;3.15;;;;;;;;;;5069968;28;20592;-67
2022/10/13 10:58:38;;;;;;;10.52;3.50;;;;;;;;;;5067814;28;20051;-66
2022/10/13 11:01:14;;;;;;;8.02;2.45;;;;;;;;;;5070377;28;20104;-67
2022/10/13 11:03:50;;;;;;;7.88;2.70;;;;;;;;;;5067277;28;20036;-66
2022/10/13 11:06:16;;;;;;;7.22;2.53;;;;;;;;;;5069364;28;20109;-67
2022/10/13 11:08:46;;;;;;;14.48;3.20;;;;;;;;;;5061417;28;20603;-68
2022/10/13 11:11:25;;;;;;;9.85;3.10;;;;;;;;;;5073321;28;20174;-67
2022/10/13 11:13:58;;;;;;;9.95;2.78;;;;;;;;;;5067329;28;20320;-67
2022/10/13 11:16:43;;;;;;;10.27;2.97;;;;;;;;;;5069793;28;20260;-67
2022/10/13 11:19:27;;;;;;;9.25;2.42;;;;;;;;;;5062735;28;20064;-66
2022/10/13 11:21:57;;;;;;;7.53;2.63;;;;;;;;;;5064832;28;20035;-66
2022/10/13 11:24:41;;;;;;;9.57;2.72;;;;;;;;;;5063658;28;20062;-68
2022/10/13 11:27:10;;;;;;;8.83;2.70;;;;;;;;;;5077082;28;20043;-67
2022/10/13 11:29:50;;;;;;;9.38;2.90;;;;;;;;;;5064694;28;20028;-67
2022/10/13 11:32:26;;;;;;;10.85;3.42;;;;;;;;;;5071428;28;20040;-67
2022/10/13 11:34:59;;;;;;;9.52;3.50;;;;;;;;;;5068150;28;20429;-66
2022/10/13 11:37:48;;;;;;;11.15;3.90;;;;;;;;;;5063243;28;20038;-66
2022/10/13 11:40:26;;;;;;;9.32;3.10;;;;;;;;;;5057276;28;20219;-67
2022/10/13 11:43:11;;;;;;;7.60;2.70;;;;;;;;;;5074464;28;20024;-67
2022/10/13 11:45:37;;;;;;;9.90;3.30;;;;;;;;;;5064325;28;20077;-69
2022/10/13 11:48:21;;;;;;;9.75;3.15;;;;;;;;;;5064883;28;20928;-67
2022/10/13 11:50:48;;;;;;;9.73;3.78;;;;;;;;;;5064446;28;20031;-66
2022/10/13 11:53:17;;;;;;;10.57;2.88;;;;;;;;;;5076911;28;20122;-68
2022/10/13 11:55:49;;;;;;;10.27;3.03;;;;;;;;;;5070111;28;20867;-66
2022/10/13 11:58:21;;;;;;;8.75;3.05;;;;;;;;;;5078150;28;20046;-66
2022/10/13 12:00:58;;;;;;;10.18;3.35;;;;;;;;;;5067032;28;20033;-66
2022/10/13 12:03:31;;;;;;;10.70;3.72;;;;;;;;;;5071548;28;20036;-68
2022/10/13 12:06:00;;;;;;;11.23;3.30;;;;;;;;;;5065514;28;20028;-67
2022/10/13 12:08:27;;;;;;;8.73;3.13;;;;;;;;;;5063559;28;20118;-67
2022/10/13 12:10:57;;;;;;;10.52;2.97;;;;;;;;;;5069168;28;20818;-67
2022/10/13 12:13:30;;;;;;;11.00;3.08;;;;;;;;;;5069005;28;20032;-67
2022/10/13 12:16:02;;;;;;;8.07;2.70;;;;;;;;;;5065181;28;20031;-67
2022/10/13 12:18:39;;;;;;;9.60;3.00;;;;;;;;;;5062381;28;20055;-68
2022/10/13 12:21:16;;;;;;;10.70;2.90;;;;;;;;;;5060961;28;20490;-67
2022/10/13 12:23:43;;;;;;;10.68;3.17;;;;;;;;;;5064926;28;20050;-68
2022/10/13 12:26:16;;;;;;;8.90;2.85;;;;;;;;;;5064100;28;20028;-68
2022/10/13 12:28:50;;;;;;;9.40;2.80;;;;;;;;;;5064618;28;20040;-66
2022/10/13 12:31:17;;;;;;;10.68;3.30;;;;;;;;;;5072250;28;20603;-66
2022/10/13 12:33:50;;;;;;;10.63;2.72;;;;;;;;;;5061355;28;20057;-68
2022/10/13 12:36:18;;;;;;;9.55;2.88;;;;;;;;;;5070581;28;20839;-66
2022/10/13 12:38:48;;;;;;;9.15;2.67;;;;;;;;;;5064846;28;20576;-67
2022/10/13 12:41:17;;;;;;;8.77;2.60;;;;;;;;;;5076025;28;20138;-68
2022/10/13 12:43:43;;;;;;;9.98;3.10;;;;;;;;;;5058227;28;20047;-68
2022/10/13 12:46:09;;;;;;;10.32;3.05;;;;;;;;;;5067066;28;20032;-67
2022/10/13 12:48:37;;;;;;;8.65;2.90;;;;;;;;;;5062648;28;20433;-70
2022/10/13 12:51:14;;;;;;;8.35;2.90;;;;;;;;;;5066918;28;20532;-66
2022/10/13 12:53:40;;;;;;;11.68;3.25;;;;;;;;;;5061985;28;20424;-67
2022/10/13 12:56:07;;;;;;;9.63;2.97;;;;;;;;;;5063133;28;20126;-68
2022/10/13 12:58:36;;;;;;;8.70;2.78;;;;;;;;;;5066302;28;20106;-67
2022/10/13 13:01:02;;;;;;;11.32;2.90;;;;;;;;;;5064762;28;20039;-68
2022/10/13 13:03:29;;;;;;;8.68;2.78;;;;;;;;;;5063162;28;20077;-67
2022/10/13 13:06:07;;;;;;;8.15;2.90;;;;;;;;;;5066454;28;20017;-67
2022/10/13 13:08:33;;;;;;;9.23;2.92;;;;;;;;;;5063719;28;20130;-67
2022/10/13 13:11:06;;;;;;;8.55;2.90;;;;;;;;;;5066040;28;20031;-68
2022/10/13 13:13:33;;;;;;;7.82;2.58;;;;;;;;;;5059820;28;20121;-68
2022/10/13 13:16:19;;;;;;;8.00;2.78;;;;;;;;;;5068305;28;20025;-68
2022/10/13 13:18:45;;;;;;;9.60;2.63;;;;;;;;;;5063265;28;20413;-68
2022/10/13 13:21:13;;;;;;;9.70;2.65;;;;;;;;;;5060374;28;20637;-68
2022/10/13 13:23:39;;;;;;;8.02;2.58;;;;;;;;;;5066014;28;20035;-68
2022/10/13 13:26:12;;;;;;;7.78;2.45;;;;;;;;;;5069347;28;20515;-68
2022/10/13 13:28:39;;;;;;;8.98;2.70;;;;;;;;;;5059839;28;20032;-66
2022/10/13 13:31:05;;;;;;;8.00;2.50;;;;;;;;;;5069935;28;20122;-67
2022/10/13 13:33:31;;;;;;;9.90;2.60;;;;;;;;;;5068188;28;20051;-66
2022/10/13 13:35:57;;;;;;;7.97;2.90;;;;;;;;;;5063187;28;20389;-67
2022/10/13 13:38:23;;;;;;;9.30;2.75;;;;;;;;;;5065428;28;20036;-67
2022/10/13 13:40:49;;;;;;;10.70;3.08;;;;;;;;;;5063187;28;20427;-68
2022/10/13 13:43:15;;;;;;;9.23;2.78;;;;;;;;;;5066010;28;20082;-67
2022/10/13 13:45:41;;;;;;;8.00;2.88;;;;;;;;;;5063601;28;20127;-68
2022/10/13 13:48:08;;;;;;;7.60;2.53;;;;;;;;;;5061183;28;20093;-68
2022/10/13 13:50:35;;;;;;;8.63;3.08;;;;;;;;;;5059708;28;20067;-66
2022/10/13 13:53:02;;;;;;;8.23;3.00;;;;;;;;;;5060309;28;20042;-68
2022/10/13 13:55:28;;;;;;;8.45;2.47;;;;;;;;;;5066363;28;20024;-67
2022/10/13 13:57:55;;;;;;;7.75;2.45;;;;;;;;;;5063048;28;20047;-67
2022/10/13 14:00:21;;;;;;;7.80;2.13;;;;;;;;;;5065501;28;20024;-67
2022/10/13 14:02:47;;;;;;;9.80;2.95;;;;;;;;;;5067419;28;20876;-68
2022/10/13 14:05:14;;;;;;;7.50;2.10;;;;;;;;;;5064102;28;20020;-67
2022/10/13 14:07:40;;;;;;;9.18;3.00;;;;;;;;;;5062447;28;20091;-68
2022/10/13 14:10:06;;;;;;;10.32;2.58;;;;;;;;;;5062595;28;20057;-67
2022/10/13 14:12:33;;;;;;;11.77;2.92;;;;;;;;;;5061963;28;20580;-67
2022/10/13 14:14:59;;;;;;;18.40;3.97;;;;;;;;;;5067681;28;20059;-67
2022/10/13 14:17:25;;;;;;;8.55;3.40;;;;;;;;;;5069178;28;20379;-67
2022/10/13 14:19:51;;;;;;;12.30;4.45;;;;;;;;;;5064803;28;20119;-67
2022/10/13 14:22:17;;;;;;;11.52;4.03;;;;;;;;;;5071643;28;20020;-66
2022/10/13 14:24:43;;;;;;;13.57;4.15;;;;;;;;;;5067396;28;20024;-68
2022/10/13 14:27:09;;;;;;;15.25;4.13;;;;;;;;;;5070029;28;20034;-67
2022/10/13 14:29:36;;;;;;;11.05;3.80;;;;;;;;;;5062527;28;20154;-68
2022/10/13 14:32:02;;;;;;;9.90;2.78;;;;;;;;;;5069122;28;20048;-68
2022/10/13 14:34:29;;;;;;;9.90;2.97;;;;;;;;;;5066585;28;20036;-68
2022/10/13 14:36:55;;;;;;;9.43;3.35;;;;;;;;;;5063152;28;20068;-67
2022/10/13 14:39:21;;;;;;;9.23;4.13;;;;;;;;;;5060323;28;20567;-68
2022/10/13 14:41:47;;;;;;;10.20;3.70;;;;;;;;;;5066581;28;20115;-68
2022/10/13 14:44:13;;;;;;;14.55;4.65;;;;;;;;;;5072489;28;20228;-69
2022/10/13 14:46:40;;;;;;;15.15;4.95;;;;;;;;;;5063818;28;20032;-68
2022/10/13 14:49:06;;;;;;;11.13;4.22;;;;;;;;;;5062071;28;20032;-69